sensor_id;sensor_type;location;lat;lon;timestamp;P1;durP1;ratioP1;P2;durP2;ratioP2
11931;SDS011;6025;51.368;6.788;2023-04-01T00:02:30;2.80;;;1.00;;
11931;SDS011;6025;51.368;6.788;2023-04-01T00:07:21;3.03;;;1.15;;
11931;SDS011;6025;51.368;6.788;2023-04-01T00:12:14;2.65;;;1.00;;
11931;SDS011;6025;51.368;6.788;2023-04-01T00:17:06;6.57;;;1.00;;
11931;SDS011;6025;51.368;6.788;2023-04-01T00:21:57;3.22;;;1.20;;
11931;SDS011;6025;51.368;6.788;2023-04-01T00:26:49;2.30;;;1.00;;
11931;SDS011;6025;51.368;6.788;2023-04-01T00:31:42;2.80;;;1.00;;
11931;SDS011;6025;51.368;6.788;2023-04-01T00:36:33;2.37;;;0.80;;
11931;SDS011;6025;51.368;6.788;2023-04-01T00:41:25;2.57;;;0.97;;
11931;SDS011;6025;51.368;6.788;2023-04-01T00:46:18;1.20;;;0.70;;
11931;SDS011;6025;51.368;6.788;2023-04-01T00:51:11;4.00;;;1.00;;
11931;SDS011;6025;51.368;6.788;2023-04-01T00:56:07;2.83;;;0.98;;
11931;SDS011;6025;51.368;6.788;2023-04-01T01:01:01;4.93;;;1.00;;
11931;SDS011;6025;51.368;6.788;2023-04-01T01:06:00;2.53;;;1.00;;
11931;SDS011;6025;51.368;6.788;2023-04-01T01:11:01;1.80;;;0.90;;
11931;SDS011;6025;51.368;6.788;2023-04-01T01:15:56;4.23;;;0.87;;
11931;SDS011;6025;51.368;6.788;2023-04-01T01:20:57;2.33;;;0.90;;
11931;SDS011;6025;51.368;6.788;2023-04-01T01:31:29;1.40;;;0.73;;
11931;SDS011;6025;51.368;6.788;2023-04-01T01:36:30;4.57;;;0.80;;
11931;SDS011;6025;51.368;6.788;2023-04-01T01:41:24;2.17;;;0.70;;
11931;SDS011;6025;51.368;6.788;2023-04-01T01:46:17;2.80;;;1.10;;
11931;SDS011;6025;51.368;6.788;2023-04-01T01:51:10;2.13;;;0.80;;
11931;SDS011;6025;51.368;6.788;2023-04-01T01:56:03;3.50;;;0.77;;
11931;SDS011;6025;51.368;6.788;2023-04-01T02:00:56;1.37;;;0.60;;
11931;SDS011;6025;51.368;6.788;2023-04-01T02:05:49;2.13;;;0.70;;
11931;SDS011;6025;51.368;6.788;2023-04-01T02:10:43;1.40;;;0.70;;
11931;SDS011;6025;51.368;6.788;2023-04-01T02:15:40;2.17;;;0.83;;
11931;SDS011;6025;51.368;6.788;2023-04-01T02:20:33;1.73;;;0.90;;
11931;SDS011;6025;51.368;6.788;2023-04-01T02:25:26;2.00;;;0.80;;
11931;SDS011;6025;51.368;6.788;2023-04-01T02:30:19;2.33;;;0.80;;
11931;SDS011;6025;51.368;6.788;2023-04-01T02:35:13;1.97;;;0.63;;
11931;SDS011;6025;51.368;6.788;2023-04-01T02:40:06;2.37;;;0.77;;
11931;SDS011;6025;51.368;6.788;2023-04-01T02:44:59;2.10;;;0.80;;
11931;SDS011;6025;51.368;6.788;2023-04-01T02:49:51;2.23;;;0.90;;
11931;SDS011;6025;51.368;6.788;2023-04-01T02:54:49;1.33;;;0.80;;
11931;SDS011;6025;51.368;6.788;2023-04-01T02:59:40;3.43;;;1.00;;
11931;SDS011;6025;51.368;6.788;2023-04-01T03:04:32;3.17;;;1.07;;
11931;SDS011;6025;51.368;6.788;2023-04-01T03:09:23;2.20;;;0.83;;
11931;SDS011;6025;51.368;6.788;2023-04-01T03:14:16;2.87;;;0.90;;
11931;SDS011;6025;51.368;6.788;2023-04-01T03:19:08;2.20;;;0.83;;
11931;SDS011;6025;51.368;6.788;2023-04-01T03:23:59;1.87;;;0.93;;
11931;SDS011;6025;51.368;6.788;2023-04-01T03:28:51;2.30;;;0.80;;
11931;SDS011;6025;51.368;6.788;2023-04-01T03:33:43;2.07;;;0.97;;
11931;SDS011;6025;51.368;6.788;2023-04-01T03:38:35;1.38;;;0.88;;
11931;SDS011;6025;51.368;6.788;2023-04-01T03:43:27;1.95;;;0.90;;
11931;SDS011;6025;51.368;6.788;2023-04-01T03:48:18;2.58;;;1.00;;
11931;SDS011;6025;51.368;6.788;2023-04-01T03:53:11;3.13;;;1.00;;
11931;SDS011;6025;51.368;6.788;2023-04-01T03:58:03;1.37;;;0.97;;
11931;SDS011;6025;51.368;6.788;2023-04-01T04:02:55;1.87;;;0.90;;
11931;SDS011;6025;51.368;6.788;2023-04-01T04:07:46;0.70;;;0.70;;
11931;SDS011;6025;51.368;6.788;2023-04-01T04:12:39;2.47;;;1.10;;
11931;SDS011;6025;51.368;6.788;2023-04-01T04:17:31;1.93;;;1.00;;
11931;SDS011;6025;51.368;6.788;2023-04-01T04:22:22;1.67;;;0.83;;
11931;SDS011;6025;51.368;6.788;2023-04-01T04:27:14;2.50;;;1.10;;
11931;SDS011;6025;51.368;6.788;2023-04-01T04:32:07;2.30;;;1.00;;
11931;SDS011;6025;51.368;6.788;2023-04-01T04:36:59;1.37;;;0.90;;
11931;SDS011;6025;51.368;6.788;2023-04-01T04:41:50;1.93;;;1.20;;
11931;SDS011;6025;51.368;6.788;2023-04-01T04:46:42;1.60;;;1.00;;
11931;SDS011;6025;51.368;6.788;2023-04-01T04:51:35;1.40;;;1.30;;
11931;SDS011;6025;51.368;6.788;2023-04-01T04:56:26;2.57;;;1.30;;
11931;SDS011;6025;51.368;6.788;2023-04-01T05:01:18;1.50;;;1.40;;
11931;SDS011;6025;51.368;6.788;2023-04-01T05:06:11;1.80;;;1.20;;
11931;SDS011;6025;51.368;6.788;2023-04-01T05:11:06;1.87;;;1.40;;
11931;SDS011;6025;51.368;6.788;2023-04-01T05:15:59;1.60;;;1.40;;
11931;SDS011;6025;51.368;6.788;2023-04-01T05:20:52;2.03;;;1.57;;
11931;SDS011;6025;51.368;6.788;2023-04-01T05:25:44;1.80;;;1.47;;
11931;SDS011;6025;51.368;6.788;2023-04-01T05:30:38;2.35;;;1.50;;
11931;SDS011;6025;51.368;6.788;2023-04-01T05:35:30;2.83;;;1.60;;
11931;SDS011;6025;51.368;6.788;2023-04-01T05:40:22;2.07;;;1.70;;
11931;SDS011;6025;51.368;6.788;2023-04-01T05:45:13;2.47;;;1.83;;
11931;SDS011;6025;51.368;6.788;2023-04-01T05:50:07;3.00;;;2.07;;
11931;SDS011;6025;51.368;6.788;2023-04-01T05:55:00;2.50;;;2.20;;
11931;SDS011;6025;51.368;6.788;2023-04-01T05:59:52;2.80;;;1.90;;
11931;SDS011;6025;51.368;6.788;2023-04-01T06:04:43;2.50;;;2.25;;
11931;SDS011;6025;51.368;6.788;2023-04-01T06:09:37;2.23;;;2.03;;
11931;SDS011;6025;51.368;6.788;2023-04-01T06:14:31;3.72;;;2.40;;
11931;SDS011;6025;51.368;6.788;2023-04-01T06:19:29;3.00;;;2.70;;
11931;SDS011;6025;51.368;6.788;2023-04-01T06:24:38;2.92;;;2.65;;
11931;SDS011;6025;51.368;6.788;2023-04-01T06:29:44;3.80;;;2.70;;
11931;SDS011;6025;51.368;6.788;2023-04-01T06:45:32;4.25;;;2.70;;
11931;SDS011;6025;51.368;6.788;2023-04-01T06:50:29;3.40;;;3.10;;
11931;SDS011;6025;51.368;6.788;2023-04-01T06:55:26;2.97;;;2.77;;
11931;SDS011;6025;51.368;6.788;2023-04-01T07:00:20;2.97;;;2.67;;
11931;SDS011;6025;51.368;6.788;2023-04-01T07:05:16;2.97;;;2.72;;
11931;SDS011;6025;51.368;6.788;2023-04-01T07:10:10;5.13;;;2.55;;
11931;SDS011;6025;51.368;6.788;2023-04-01T07:15:09;3.10;;;2.80;;
11931;SDS011;6025;51.368;6.788;2023-04-01T07:20:08;3.15;;;2.85;;
11931;SDS011;6025;51.368;6.788;2023-04-01T07:25:07;4.65;;;3.00;;
11931;SDS011;6025;51.368;6.788;2023-04-01T07:30:06;3.90;;;3.55;;
11931;SDS011;6025;51.368;6.788;2023-04-01T07:35:07;3.70;;;3.40;;
11931;SDS011;6025;51.368;6.788;2023-04-01T07:40:06;3.60;;;3.30;;
11931;SDS011;6025;51.368;6.788;2023-04-01T07:45:07;4.07;;;3.67;;
11931;SDS011;6025;51.368;6.788;2023-04-01T07:50:08;3.92;;;3.60;;
11931;SDS011;6025;51.368;6.788;2023-04-01T07:55:04;4.82;;;4.35;;
11931;SDS011;6025;51.368;6.788;2023-04-01T08:00:01;4.50;;;4.10;;
11931;SDS011;6025;51.368;6.788;2023-04-01T08:05:00;4.80;;;4.30;;
11931;SDS011;6025;51.368;6.788;2023-04-01T08:09:58;4.63;;;4.22;;
11931;SDS011;6025;51.368;6.788;2023-04-01T08:14:54;5.25;;;4.68;;
11931;SDS011;6025;51.368;6.788;2023-04-01T08:19:54;5.00;;;4.60;;
11931;SDS011;6025;51.368;6.788;2023-04-01T08:24:52;4.68;;;4.28;;
11931;SDS011;6025;51.368;6.788;2023-04-01T08:29:46;4.93;;;4.53;;
11931;SDS011;6025;51.368;6.788;2023-04-01T08:34:40;4.00;;;3.70;;
11931;SDS011;6025;51.368;6.788;2023-04-01T08:39:35;4.60;;;4.15;;
11931;SDS011;6025;51.368;6.788;2023-04-01T08:44:49;4.40;;;4.00;;
11931;SDS011;6025;51.368;6.788;2023-04-01T08:49:56;4.68;;;4.13;;
11931;SDS011;6025;51.368;6.788;2023-04-01T08:55:02;5.32;;;4.07;;
11931;SDS011;6025;51.368;6.788;2023-04-01T09:00:09;6.53;;;4.78;;
11931;SDS011;6025;51.368;6.788;2023-04-01T09:16:21;6.80;;;5.97;;
11931;SDS011;6025;51.368;6.788;2023-04-01T09:21:24;8.07;;;6.32;;
11931;SDS011;6025;51.368;6.788;2023-04-01T09:26:44;6.78;;;6.10;;
11931;SDS011;6025;51.368;6.788;2023-04-01T09:31:47;8.13;;;7.10;;
11931;SDS011;6025;51.368;6.788;2023-04-01T09:36:55;8.00;;;7.20;;
11931;SDS011;6025;51.368;6.788;2023-04-01T09:42:02;7.68;;;6.88;;
11931;SDS011;6025;51.368;6.788;2023-04-01T09:47:04;7.53;;;6.72;;
11931;SDS011;6025;51.368;6.788;2023-04-01T09:52:10;10.65;;;7.47;;
11931;SDS011;6025;51.368;6.788;2023-04-01T09:57:22;9.18;;;7.90;;
11931;SDS011;6025;51.368;6.788;2023-04-01T10:08:11;8.95;;;8.05;;
11931;SDS011;6025;51.368;6.788;2023-04-01T10:24:19;11.10;;;8.57;;
11931;SDS011;6025;51.368;6.788;2023-04-01T10:29:31;10.15;;;8.55;;
11931;SDS011;6025;51.368;6.788;2023-04-01T10:34:40;11.23;;;8.60;;
11931;SDS011;6025;51.368;6.788;2023-04-01T10:40:08;12.00;;;8.70;;
11931;SDS011;6025;51.368;6.788;2023-04-01T10:45:34;10.65;;;8.68;;
11931;SDS011;6025;51.368;6.788;2023-04-01T10:50:55;12.27;;;9.15;;
11931;SDS011;6025;51.368;6.788;2023-04-01T10:56:34;10.25;;;9.15;;
11931;SDS011;6025;51.368;6.788;2023-04-01T11:01:42;9.90;;;8.93;;
11931;SDS011;6025;51.368;6.788;2023-04-01T11:06:59;9.93;;;8.77;;
11931;SDS011;6025;51.368;6.788;2023-04-01T11:18:08;10.00;;;8.63;;
11931;SDS011;6025;51.368;6.788;2023-04-01T11:23:19;9.68;;;8.75;;
11931;SDS011;6025;51.368;6.788;2023-04-01T11:33:52;11.23;;;8.68;;
11931;SDS011;6025;51.368;6.788;2023-04-01T11:38:53;9.88;;;8.93;;
11931;SDS011;6025;51.368;6.788;2023-04-01T11:43:54;10.52;;;8.45;;
11931;SDS011;6025;51.368;6.788;2023-04-01T11:48:57;8.85;;;7.95;;
11931;SDS011;6025;51.368;6.788;2023-04-01T11:53:54;6.90;;;6.20;;
11931;SDS011;6025;51.368;6.788;2023-04-01T11:59:02;6.65;;;5.78;;
11931;SDS011;6025;51.368;6.788;2023-04-01T12:04:18;7.40;;;5.40;;
11931;SDS011;6025;51.368;6.788;2023-04-01T12:09:39;7.70;;;5.28;;
11931;SDS011;6025;51.368;6.788;2023-04-01T12:14:36;6.13;;;5.40;;
11931;SDS011;6025;51.368;6.788;2023-04-01T12:19:35;6.68;;;6.03;;
11931;SDS011;6025;51.368;6.788;2023-04-01T12:24:35;6.63;;;5.97;;
11931;SDS011;6025;51.368;6.788;2023-04-01T12:29:39;7.43;;;6.28;;
11931;SDS011;6025;51.368;6.788;2023-04-01T12:34:43;7.45;;;6.15;;
11931;SDS011;6025;51.368;6.788;2023-04-01T12:39:54;7.18;;;5.88;;
11931;SDS011;6025;51.368;6.788;2023-04-01T12:44:52;8.27;;;6.65;;
11931;SDS011;6025;51.368;6.788;2023-04-01T12:49:55;8.77;;;7.28;;
11931;SDS011;6025;51.368;6.788;2023-04-01T13:00:24;7.68;;;6.55;;
11931;SDS011;6025;51.368;6.788;2023-04-01T13:05:24;7.57;;;6.32;;
11931;SDS011;6025;51.368;6.788;2023-04-01T13:10:33;7.68;;;6.72;;
11931;SDS011;6025;51.368;6.788;2023-04-01T13:15:44;7.82;;;6.55;;
11931;SDS011;6025;51.368;6.788;2023-04-01T13:20:43;6.70;;;6.00;;
11931;SDS011;6025;51.368;6.788;2023-04-01T13:25:38;6.78;;;6.07;;
11931;SDS011;6025;51.368;6.788;2023-04-01T13:30:33;8.27;;;5.97;;
11931;SDS011;6025;51.368;6.788;2023-04-01T13:35:32;7.25;;;6.30;;
11931;SDS011;6025;51.368;6.788;2023-04-01T13:40:38;7.78;;;6.50;;
11931;SDS011;6025;51.368;6.788;2023-04-01T13:45:34;7.47;;;6.45;;
11931;SDS011;6025;51.368;6.788;2023-04-01T13:50:34;7.55;;;6.07;;
11931;SDS011;6025;51.368;6.788;2023-04-01T13:56:01;7.85;;;6.07;;
11931;SDS011;6025;51.368;6.788;2023-04-01T14:01:04;6.93;;;6.18;;
11931;SDS011;6025;51.368;6.788;2023-04-01T14:06:02;8.02;;;6.25;;
11931;SDS011;6025;51.368;6.788;2023-04-01T14:11:01;6.05;;;5.45;;
11931;SDS011;6025;51.368;6.788;2023-04-01T14:21:41;7.72;;;5.00;;
11931;SDS011;6025;51.368;6.788;2023-04-01T14:26:52;5.70;;;5.10;;
11931;SDS011;6025;51.368;6.788;2023-04-01T14:32:02;6.00;;;5.18;;
11931;SDS011;6025;51.368;6.788;2023-04-01T14:42:14;7.68;;;5.82;;
11931;SDS011;6025;51.368;6.788;2023-04-01T14:47:22;5.38;;;4.88;;
11931;SDS011;6025;51.368;6.788;2023-04-01T14:52:35;5.13;;;4.63;;
11931;SDS011;6025;51.368;6.788;2023-04-01T14:57:29;5.57;;;4.97;;
11931;SDS011;6025;51.368;6.788;2023-04-01T15:02:29;5.40;;;4.90;;
11931;SDS011;6025;51.368;6.788;2023-04-01T15:07:33;5.28;;;4.70;;
11931;SDS011;6025;51.368;6.788;2023-04-01T15:12:36;5.50;;;5.00;;
11931;SDS011;6025;51.368;6.788;2023-04-01T15:17:38;5.95;;;4.80;;
11931;SDS011;6025;51.368;6.788;2023-04-01T15:22:41;5.50;;;4.65;;
11931;SDS011;6025;51.368;6.788;2023-04-01T15:27:39;5.30;;;4.15;;
11931;SDS011;6025;51.368;6.788;2023-04-01T15:32:42;5.22;;;4.47;;
11931;SDS011;6025;51.368;6.788;2023-04-01T15:37:39;5.20;;;4.28;;
11931;SDS011;6025;51.368;6.788;2023-04-01T15:42:43;4.45;;;4.03;;
11931;SDS011;6025;51.368;6.788;2023-04-01T15:47:42;4.28;;;3.88;;
11931;SDS011;6025;51.368;6.788;2023-04-01T15:52:37;4.95;;;4.03;;
11931;SDS011;6025;51.368;6.788;2023-04-01T15:57:36;5.68;;;4.25;;
11931;SDS011;6025;51.368;6.788;2023-04-01T16:02:37;6.60;;;3.70;;
11931;SDS011;6025;51.368;6.788;2023-04-01T16:07:43;4.30;;;3.90;;
11931;SDS011;6025;51.368;6.788;2023-04-01T16:12:45;4.78;;;3.75;;
11931;SDS011;6025;51.368;6.788;2023-04-01T16:18:00;3.95;;;3.22;;
11931;SDS011;6025;51.368;6.788;2023-04-01T16:23:18;4.47;;;4.07;;
11931;SDS011;6025;51.368;6.788;2023-04-01T16:28:18;4.75;;;4.25;;
11931;SDS011;6025;51.368;6.788;2023-04-01T16:33:13;5.00;;;4.50;;
11931;SDS011;6025;51.368;6.788;2023-04-01T16:38:11;6.45;;;4.72;;
11931;SDS011;6025;51.368;6.788;2023-04-01T16:43:06;10.50;;;7.60;;
11931;SDS011;6025;51.368;6.788;2023-04-01T16:48:07;5.72;;;4.88;;
11931;SDS011;6025;51.368;6.788;2023-04-01T16:53:08;7.65;;;5.97;;
11931;SDS011;6025;51.368;6.788;2023-04-01T16:58:01;6.05;;;4.95;;
11931;SDS011;6025;51.368;6.788;2023-04-01T17:02:57;7.70;;;6.38;;
11931;SDS011;6025;51.368;6.788;2023-04-01T17:07:56;6.30;;;5.57;;
11931;SDS011;6025;51.368;6.788;2023-04-01T17:13:01;7.38;;;6.10;;
11931;SDS011;6025;51.368;6.788;2023-04-01T17:18:01;7.60;;;6.32;;
11931;SDS011;6025;51.368;6.788;2023-04-01T17:23:00;9.18;;;6.50;;
11931;SDS011;6025;51.368;6.788;2023-04-01T17:27:55;8.68;;;6.70;;
11931;SDS011;6025;51.368;6.788;2023-04-01T17:32:55;9.40;;;7.18;;
11931;SDS011;6025;51.368;6.788;2023-04-01T17:38:13;7.55;;;6.32;;
11931;SDS011;6025;51.368;6.788;2023-04-01T17:43:12;7.55;;;6.75;;
11931;SDS011;6025;51.368;6.788;2023-04-01T17:48:10;7.32;;;6.63;;
11931;SDS011;6025;51.368;6.788;2023-04-01T17:53:16;6.70;;;5.97;;
11931;SDS011;6025;51.368;6.788;2023-04-01T17:58:13;7.40;;;6.47;;
11931;SDS011;6025;51.368;6.788;2023-04-01T18:03:12;7.50;;;6.43;;
11931;SDS011;6025;51.368;6.788;2023-04-01T18:08:12;9.45;;;7.80;;
11931;SDS011;6025;51.368;6.788;2023-04-01T18:13:17;7.80;;;6.97;;
11931;SDS011;6025;51.368;6.788;2023-04-01T18:18:32;7.85;;;7.10;;
11931;SDS011;6025;51.368;6.788;2023-04-01T18:23:30;8.32;;;7.22;;
11931;SDS011;6025;51.368;6.788;2023-04-01T18:28:32;8.50;;;7.60;;
11931;SDS011;6025;51.368;6.788;2023-04-01T18:33:29;8.55;;;7.75;;
11931;SDS011;6025;51.368;6.788;2023-04-01T18:38:25;8.27;;;7.30;;
11931;SDS011;6025;51.368;6.788;2023-04-01T18:43:22;8.60;;;7.70;;
11931;SDS011;6025;51.368;6.788;2023-04-01T18:48:33;8.38;;;7.53;;
11931;SDS011;6025;51.368;6.788;2023-04-01T18:53:34;11.68;;;9.23;;
11931;SDS011;6025;51.368;6.788;2023-04-01T18:58:32;10.85;;;8.93;;
11931;SDS011;6025;51.368;6.788;2023-04-01T19:03:25;11.02;;;9.70;;
11931;SDS011;6025;51.368;6.788;2023-04-01T19:08:27;12.13;;;10.40;;
11931;SDS011;6025;51.368;6.788;2023-04-01T19:13:21;11.73;;;10.43;;
11931;SDS011;6025;51.368;6.788;2023-04-01T19:28:47;10.68;;;9.45;;
11931;SDS011;6025;51.368;6.788;2023-04-01T19:33:45;11.67;;;9.37;;
11931;SDS011;6025;51.368;6.788;2023-04-01T19:38:49;9.23;;;8.25;;
11931;SDS011;6025;51.368;6.788;2023-04-01T19:43:49;10.77;;;9.68;;
11931;SDS011;6025;51.368;6.788;2023-04-01T19:48:44;11.20;;;9.57;;
11931;SDS011;6025;51.368;6.788;2023-04-01T19:53:44;10.40;;;9.27;;
11931;SDS011;6025;51.368;6.788;2023-04-01T19:58:42;10.32;;;8.95;;
11931;SDS011;6025;51.368;6.788;2023-04-01T20:03:41;9.15;;;8.10;;
11931;SDS011;6025;51.368;6.788;2023-04-01T20:08:36;7.13;;;6.53;;
11931;SDS011;6025;51.368;6.788;2023-04-01T20:13:33;5.13;;;4.72;;
11931;SDS011;6025;51.368;6.788;2023-04-01T20:18:34;4.85;;;4.45;;
11931;SDS011;6025;51.368;6.788;2023-04-01T20:23:33;6.05;;;5.20;;
11931;SDS011;6025;51.368;6.788;2023-04-01T20:28:30;5.75;;;5.25;;
11931;SDS011;6025;51.368;6.788;2023-04-01T20:33:30;7.40;;;5.47;;
11931;SDS011;6025;51.368;6.788;2023-04-01T20:44:10;7.18;;;6.50;;
11931;SDS011;6025;51.368;6.788;2023-04-01T20:54:39;6.07;;;5.57;;
11931;SDS011;6025;51.368;6.788;2023-04-01T20:59:43;4.50;;;4.10;;
11931;SDS011;6025;51.368;6.788;2023-04-01T21:04:44;4.47;;;4.13;;
11931;SDS011;6025;51.368;6.788;2023-04-01T21:15:18;5.75;;;5.25;;
11931;SDS011;6025;51.368;6.788;2023-04-01T21:20:28;5.87;;;5.27;;
11931;SDS011;6025;51.368;6.788;2023-04-01T21:25:39;5.28;;;4.78;;
11931;SDS011;6025;51.368;6.788;2023-04-01T21:30:47;4.40;;;3.97;;
11931;SDS011;6025;51.368;6.788;2023-04-01T21:35:50;3.70;;;3.40;;
11931;SDS011;6025;51.368;6.788;2023-04-01T21:40:55;3.20;;;2.90;;
11931;SDS011;6025;51.368;6.788;2023-04-01T21:45:59;3.13;;;2.83;;
11931;SDS011;6025;51.368;6.788;2023-04-01T21:51:20;3.00;;;2.80;;
11931;SDS011;6025;51.368;6.788;2023-04-01T21:56:43;2.70;;;2.50;;
11931;SDS011;6025;51.368;6.788;2023-04-01T22:01:57;2.60;;;2.40;;
11931;SDS011;6025;51.368;6.788;2023-04-01T22:07:04;2.87;;;2.67;;
11931;SDS011;6025;51.368;6.788;2023-04-01T22:12:01;2.43;;;2.23;;
11931;SDS011;6025;51.368;6.788;2023-04-01T22:16:57;2.80;;;2.50;;
11931;SDS011;6025;51.368;6.788;2023-04-01T22:21:55;3.20;;;2.90;;
11931;SDS011;6025;51.368;6.788;2023-04-01T22:26:53;3.93;;;3.53;;
11931;SDS011;6025;51.368;6.788;2023-04-01T22:31:51;4.33;;;3.50;;
11931;SDS011;6025;51.368;6.788;2023-04-01T22:36:49;3.40;;;3.10;;
11931;SDS011;6025;51.368;6.788;2023-04-01T22:41:48;3.50;;;3.20;;
11931;SDS011;6025;51.368;6.788;2023-04-01T22:46:49;3.87;;;3.57;;
11931;SDS011;6025;51.368;6.788;2023-04-01T22:51:45;4.20;;;3.80;;
11931;SDS011;6025;51.368;6.788;2023-04-01T22:56:43;4.50;;;4.10;;
11931;SDS011;6025;51.368;6.788;2023-04-01T23:01:39;4.43;;;4.03;;
11931;SDS011;6025;51.368;6.788;2023-04-01T23:06:35;4.33;;;3.93;;
11931;SDS011;6025;51.368;6.788;2023-04-01T23:11:33;4.43;;;4.03;;
11931;SDS011;6025;51.368;6.788;2023-04-01T23:16:28;3.80;;;3.50;;
11931;SDS011;6025;51.368;6.788;2023-04-01T23:21:23;3.93;;;3.63;;
11931;SDS011;6025;51.368;6.788;2023-04-01T23:26:21;4.00;;;3.70;;
11931;SDS011;6025;51.368;6.788;2023-04-01T23:36:36;4.60;;;4.20;;
11931;SDS011;6025;51.368;6.788;2023-04-01T23:41:29;4.47;;;4.07;;
11931;SDS011;6025;51.368;6.788;2023-04-01T23:46:21;4.60;;;4.20;;
11931;SDS011;6025;51.368;6.788;2023-04-01T23:51:17;5.37;;;4.23;;
11931;SDS011;6025;51.368;6.788;2023-04-01T23:56:09;4.33;;;3.93;;
